Time;durP1;ratioP1;P1;durP2;ratioP2;P2;SDS_P1;SDS_P2;PMS_P1;PMS_P2;Temp;Humidity;BMP_temperature;BMP_pressure;BME280_temperature;BME280_humidity;BME280_pressure;Samples;Min_cycle;Max_cycle;Signal;HPM_P1;HPM_P2
2023/07/21 00:02:04;;;;;;;0.80;0.30;;;22.80;67.90;;;;;;5033693;28;20120;-79
2023/07/21 00:04:30;;;;;;;1.23;0.20;;;22.70;68.00;;;;;;5040737;28;20048;-79
2023/07/21 00:06:55;;;;;;;0.20;0.20;;;22.80;68.50;;;;;;5029167;28;20392;-78
2023/07/21 00:09:21;;;;;;;0.30;0.30;;;22.70;67.80;;;;;;5035952;28;20079;-79
2023/07/21 00:11:46;;;;;;;0.20;0.20;;;22.80;67.80;;;;;;5048524;28;20588;-79
2023/07/21 00:14:13;;;;;;;1.63;0.20;;;22.70;68.00;;;;;;5041269;28;20426;-79
2023/07/21 00:16:39;;;;;;;0.20;0.20;;;22.70;68.00;;;;;;5037352;28;20502;-79
2023/07/21 00:19:06;;;;;;;0.35;0.30;;;22.70;67.90;;;;;;5032259;28;20583;-79
2023/07/21 00:21:32;;;;;;;0.20;0.20;;;22.70;68.00;;;;;;5048046;28;20037;-79
2023/07/21 00:23:58;;;;;;;0.10;0.10;;;22.70;67.90;;;;;;5029668;28;20108;-79
2023/07/21 00:26:24;;;;;;;0.40;0.40;;;22.70;68.00;;;;;;5034904;28;20035;-79
2023/07/21 00:28:50;;;;;;;0.30;0.30;;;22.70;68.00;;;;;;5038339;28;20425;-79
2023/07/21 00:31:15;;;;;;;0.30;0.30;;;22.70;68.20;;;;;;5032365;28;20554;-78
2023/07/21 00:33:41;;;;;;;0.20;0.20;;;22.70;68.10;;;;;;5032708;28;20037;-79
2023/07/21 00:36:08;;;;;;;0.25;0.25;;;22.70;68.20;;;;;;5035350;28;20054;-79
2023/07/21 00:38:34;;;;;;;0.20;0.20;;;22.70;68.20;;;;;;5036235;28;20045;-79
2023/07/21 00:41:00;;;;;;;0.28;0.28;;;22.70;68.10;;;;;;5033288;28;20045;-79
2023/07/21 00:43:26;;;;;;;0.50;0.30;;;22.70;68.10;;;;;;5037222;28;20045;-79
2023/07/21 00:45:51;;;;;;;0.38;0.38;;;22.70;68.00;;;;;;5034467;28;20044;-79
2023/07/21 00:48:17;;;;;;;0.10;0.10;;;22.70;68.20;;;;;;5031027;28;20341;-79
2023/07/21 00:50:47;;;;;;;0.20;0.20;;;22.70;68.10;;;;;;5032908;28;20147;-80
2023/07/21 00:53:13;;;;;;;0.28;0.28;;;22.60;68.10;;;;;;5031514;28;20597;-79
2023/07/21 00:55:41;;;;;;;0.20;0.10;;;22.60;68.20;;;;;;5038602;28;20037;-79
2023/07/21 00:58:10;;;;;;;0.57;0.40;;;22.60;68.20;;;;;;5032314;28;20049;-79
2023/07/21 01:00:42;;;;;;;0.30;0.30;;;22.60;68.20;;;;;;5034801;28;20055;-79
2023/07/21 01:03:09;;;;;;;0.13;0.10;;;22.60;68.90;;;;;;5046603;28;20463;-78
2023/07/21 01:05:38;;;;;;;0.30;0.30;;;22.70;68.00;;;;;;5046215;28;20080;-78
2023/07/21 01:08:07;;;;;;;0.20;0.20;;;22.60;67.90;;;;;;5035122;28;20061;-79
2023/07/21 01:10:33;;;;;;;0.38;0.38;;;22.60;68.00;;;;;;5036961;28;20598;-79
2023/07/21 01:13:00;;;;;;;0.20;0.20;;;22.60;68.00;;;;;;5051366;28;20045;-79
2023/07/21 01:15:26;;;;;;;0.55;0.55;;;22.60;68.00;;;;;;5035071;28;20037;-79
2023/07/21 01:17:52;;;;;;;0.28;0.20;;;22.60;68.20;;;;;;5017605;28;20050;-79
2023/07/21 01:20:22;;;;;;;0.10;0.10;;;22.60;68.00;;;;;;5015090;28;20060;-79
2023/07/21 01:22:55;;;;;;;0.20;0.20;;;22.60;68.00;;;;;;5055240;28;20131;-78
2023/07/21 01:25:21;;;;;;;0.10;0.10;;;22.60;68.80;;;;;;5073586;28;20081;-79
2023/07/21 01:27:48;;;;;;;0.20;0.20;;;22.60;68.00;;;;;;5059146;28;20094;-79
2023/07/21 01:30:14;;;;;;;0.22;0.20;;;22.60;68.00;;;;;;5052285;28;20032;-79
2023/07/21 01:32:40;;;;;;;0.50;0.50;;;22.60;68.00;;;;;;5036776;28;20052;-78
2023/07/21 01:35:08;;;;;;;0.10;0.10;;;22.60;69.00;;;;;;5052853;28;20048;-79
2023/07/21 01:37:38;;;;;;;0.20;0.20;;;22.60;68.20;;;;;;5054703;28;20055;-79
2023/07/21 01:40:06;;;;;;;0.20;0.20;;;22.60;68.20;;;;;;5057144;28;20120;-79
2023/07/21 01:42:32;;;;;;;0.30;0.30;;;22.60;68.20;;;;;;5052831;28;20030;-79
2023/07/21 01:44:58;;;;;;;0.20;0.20;;;22.60;68.00;;;;;;5054653;28;20042;-79
2023/07/21 01:47:24;;;;;;;0.28;0.28;;;22.60;68.10;;;;;;5065006;28;20041;-79
2023/07/21 01:49:51;;;;;;;0.20;0.20;;;22.60;68.10;;;;;;5056428;28;20124;-79
2023/07/21 01:52:17;;;;;;;0.38;0.20;;;22.60;68.20;;;;;;5059351;28;20037;-79
2023/07/21 01:54:51;;;;;;;5.55;0.30;;;22.60;68.10;;;;;;5070455;28;20090;-80
2023/07/21 01:57:20;;;;;;;0.22;0.22;;;22.60;68.20;;;;;;5049590;28;20095;-80
2023/07/21 01:59:46;;;;;;;0.30;0.30;;;22.60;68.10;;;;;;5073869;28;20029;-79
2023/07/21 02:02:11;;;;;;;0.35;0.20;;;22.60;68.00;;;;;;5055420;28;20052;-79
2023/07/21 02:04:38;;;;;;;1.13;0.30;;;22.60;68.20;;;;;;5052696;28;20025;-79
2023/07/21 02:07:04;;;;;;;0.20;0.20;;;22.60;68.20;;;;;;5047994;28;20033;-79
2023/07/21 02:09:30;;;;;;;0.28;0.28;;;22.60;68.10;;;;;;5067555;28;20095;-79
2023/07/21 02:11:55;;;;;;;0.20;0.20;;;22.60;68.10;;;;;;5053221;28;20060;-80
2023/07/21 02:14:22;;;;;;;0.35;0.10;;;22.60;68.20;;;;;;5040078;28;20866;-79
2023/07/21 02:16:47;;;;;;;0.30;0.30;;;22.60;68.10;;;;;;5033693;28;20044;-79
2023/07/21 02:19:14;;;;;;;0.20;0.20;;;22.60;68.10;;;;;;5055513;28;20070;-79
2023/07/21 02:21:40;;;;;;;0.20;0.20;;;22.60;68.00;;;;;;5050535;28;20048;-79
2023/07/21 02:24:05;;;;;;;0.15;0.15;;;22.60;68.00;;;;;;5034814;28;20428;-79
2023/07/21 02:26:32;;;;;;;0.20;0.20;;;22.50;67.80;;;;;;5037110;28;20095;-79
2023/07/21 02:28:57;;;;;;;0.20;0.20;;;22.50;67.90;;;;;;5033093;28;20808;-79
2023/07/21 02:31:23;;;;;;;0.20;0.20;;;22.50;68.00;;;;;;5028838;28;20040;-79
2023/07/21 02:33:48;;;;;;;0.15;0.15;;;22.60;68.00;;;;;;5047592;28;20036;-79
2023/07/21 02:36:14;;;;;;;0.30;0.30;;;22.50;67.80;;;;;;5052580;28;20582;-79
2023/07/21 02:38:40;;;;;;;1.33;0.20;;;22.50;67.90;;;;;;5057200;28;20403;-79
2023/07/21 02:41:05;;;;;;;0.20;0.20;;;22.60;68.10;;;;;;5052740;28;20051;-79
2023/07/21 02:43:32;;;;;;;0.30;0.30;;;22.50;67.90;;;;;;5059500;28;20123;-79
2023/07/21 02:45:58;;;;;;;0.25;0.25;;;22.60;68.00;;;;;;5052493;28;20039;-79
2023/07/21 02:48:24;;;;;;;0.20;0.20;;;22.50;67.80;;;;;;5054500;28;20457;-79
2023/07/21 02:50:51;;;;;;;0.10;0.10;;;22.60;67.80;;;;;;5053090;28;20074;-79
2023/07/21 02:53:18;;;;;;;0.20;0.20;;;22.50;67.80;;;;;;5055706;28;20495;-79
2023/07/21 02:55:44;;;;;;;0.13;0.13;;;22.50;67.80;;;;;;5058275;28;20036;-79
2023/07/21 02:58:13;;;;;;;0.20;0.20;;;22.50;67.80;;;;;;5069176;28;20105;-79
2023/07/21 03:00:39;;;;;;;0.20;0.20;;;22.50;67.90;;;;;;5036630;28;20513;-79
2023/07/21 03:03:06;;;;;;;0.30;0.30;;;22.50;67.80;;;;;;5053400;28;20036;-79
2023/07/21 03:05:32;;;;;;;0.20;0.20;;;22.50;67.80;;;;;;5052602;28;20072;-79
2023/07/21 03:07:57;;;;;;;0.30;0.20;;;22.60;67.90;;;;;;5048468;28;20064;-79
2023/07/21 03:10:23;;;;;;;0.20;0.20;;;22.50;67.80;;;;;;5069170;28;20041;-80
2023/07/21 03:12:49;;;;;;;0.30;0.30;;;22.50;67.80;;;;;;5053035;28;20047;-79
2023/07/21 03:15:17;;;;;;;0.30;0.30;;;22.50;67.80;;;;;;5052969;28;20056;-79
2023/07/21 03:17:43;;;;;;;0.25;0.25;;;22.50;67.70;;;;;;5054524;28;20049;-79
2023/07/21 03:20:12;;;;;;;0.30;0.30;;;22.50;67.80;;;;;;5040746;28;20437;-78
2023/07/21 03:22:42;;;;;;;0.20;0.20;;;22.50;67.70;;;;;;5056046;28;20033;-80
2023/07/21 03:25:08;;;;;;;0.20;0.20;;;22.50;67.60;;;;;;5051340;28;20028;-79
2023/07/21 03:27:34;;;;;;;0.20;0.20;;;22.50;67.60;;;;;;5056544;28;20166;-79
2023/07/21 03:30:01;;;;;;;0.20;0.20;;;22.50;67.60;;;;;;5050716;28;20205;-79
2023/07/21 03:32:27;;;;;;;0.22;0.22;;;22.50;67.60;;;;;;5051534;28;20534;-79
2023/07/21 03:34:54;;;;;;;0.20;0.20;;;22.50;67.60;;;;;;5060179;28;20047;-79
2023/07/21 03:37:23;;;;;;;0.20;0.10;;;22.50;67.60;;;;;;5054675;28;20049;-79
2023/07/21 03:39:49;;;;;;;0.20;0.20;;;22.50;67.70;;;;;;5049243;28;20037;-79
2023/07/21 03:42:14;;;;;;;1.58;0.30;;;22.50;67.60;;;;;;5051623;28;20040;-79
2023/07/21 03:44:40;;;;;;;0.20;0.20;;;22.50;67.70;;;;;;5054753;28;20508;-79
2023/07/21 03:47:06;;;;;;;0.30;0.30;;;22.50;67.70;;;;;;5056797;28;20052;-80
2023/07/21 03:49:32;;;;;;;0.20;0.20;;;22.50;67.60;;;;;;5054444;28;20447;-79
2023/07/21 03:51:57;;;;;;;0.20;0.20;;;22.50;67.70;;;;;;5053669;28;20094;-79
2023/07/21 03:54:23;;;;;;;0.70;0.30;;;22.50;67.70;;;;;;5069053;28;20097;-79
2023/07/21 03:56:48;;;;;;;0.30;0.30;;;22.50;67.80;;;;;;5055805;28;20036;-79
2023/07/21 03:59:14;;;;;;;0.28;0.28;;;22.50;67.80;;;;;;5055392;28;20413;-78
2023/07/21 04:01:39;;;;;;;0.32;0.30;;;22.50;67.70;;;;;;5053083;28;20093;-79
2023/07/21 04:04:05;;;;;;;0.15;0.15;;;22.50;67.70;;;;;;5052746;28;20048;-79
2023/07/21 04:06:30;;;;;;;0.20;0.20;;;22.50;67.80;;;;;;5050502;28;20053;-80
2023/07/21 04:08:56;;;;;;;1.08;0.32;;;22.50;67.90;;;;;;5057313;28;20043;-79
2023/07/21 04:11:22;;;;;;;0.40;0.40;;;22.50;67.80;;;;;;5053892;28;20037;-79
2023/07/21 04:13:47;;;;;;;0.25;0.25;;;22.50;67.90;;;;;;5057379;28;20559;-79
2023/07/21 04:16:13;;;;;;;0.20;0.20;;;22.50;67.80;;;;;;5051095;28;20049;-79
2023/07/21 04:18:39;;;;;;;0.30;0.30;;;22.50;67.80;;;;;;5055151;28;20112;-79
2023/07/21 04:21:05;;;;;;;0.30;0.30;;;22.50;67.80;;;;;;5048939;28;20059;-79
2023/07/21 04:23:30;;;;;;;1.40;0.32;;;22.50;67.80;;;;;;5055033;28;20045;-79
2023/07/21 04:25:56;;;;;;;0.20;0.20;;;22.50;67.80;;;;;;5051266;28;20405;-79
2023/07/21 04:28:22;;;;;;;0.22;0.22;;;22.50;67.70;;;;;;5053060;28;20056;-79
2023/07/21 04:30:52;;;;;;;1.13;0.20;;;22.50;67.60;;;;;;5050697;28;20599;-79
2023/07/21 04:33:18;;;;;;;0.28;0.25;;;22.40;67.60;;;;;;5057497;28;20059;-79
2023/07/21 04:35:45;;;;;;;3.05;0.30;;;22.40;67.60;;;;;;5057204;28;20041;-79
2023/07/21 04:38:11;;;;;;;0.20;0.20;;;22.50;67.70;;;;;;5055819;28;20463;-79
2023/07/21 04:40:37;;;;;;;0.28;0.28;;;22.40;67.60;;;;;;5059372;28;20504;-79
2023/07/21 04:43:03;;;;;;;0.28;0.28;;;22.50;67.70;;;;;;5048382;28;20068;-79
2023/07/21 04:45:28;;;;;;;38.55;1.13;;;22.40;67.70;;;;;;5057341;28;20461;-79
2023/07/21 04:47:54;;;;;;;2.92;0.40;;;22.50;67.70;;;;;;5058131;28;20044;-79
2023/07/21 04:50:19;;;;;;;0.25;0.25;;;22.40;67.50;;;;;;5056771;28;20128;-78
2023/07/21 04:52:46;;;;;;;0.30;0.30;;;22.50;67.50;;;;;;5061188;28;20052;-79
2023/07/21 04:55:12;;;;;;;0.20;0.20;;;22.50;68.30;;;;;;5052403;28;20032;-79
2023/07/21 04:57:37;;;;;;;0.30;0.30;;;22.50;67.50;;;;;;5054529;28;21251;-79
2023/07/21 05:00:03;;;;;;;0.20;0.20;;;22.50;67.50;;;;;;5059202;28;20110;-79
2023/07/21 05:02:29;;;;;;;0.17;0.17;;;22.40;67.50;;;;;;5052682;28;20048;-79
2023/07/21 05:04:57;;;;;;;0.20;0.20;;;22.50;67.20;;;;;;5058193;28;20029;-79
2023/07/21 05:07:23;;;;;;;0.20;0.20;;;22.50;67.60;;;;;;5042294;28;20048;-79
2023/07/21 05:09:48;;;;;;;0.30;0.30;;;22.50;67.30;;;;;;5058380;28;20033;-79
2023/07/21 05:12:14;;;;;;;0.30;0.30;;;22.40;67.30;;;;;;5050069;28;20518;-79
2023/07/21 05:14:39;;;;;;;0.30;0.30;;;22.40;67.50;;;;;;5072597;28;20391;-79
2023/07/21 05:17:05;;;;;;;0.22;0.20;;;22.40;67.60;;;;;;5057183;28;20057;-79
2023/07/21 05:19:30;;;;;;;1.75;0.40;;;22.40;67.50;;;;;;5051505;28;20045;-79
2023/07/21 05:21:56;;;;;;;0.30;0.30;;;22.40;68.20;;;;;;5057603;28;20037;-79
2023/07/21 05:24:22;;;;;;;0.20;0.20;;;22.40;67.30;;;;;;5052795;28;20048;-79
2023/07/21 05:26:48;;;;;;;0.35;0.35;;;22.40;67.30;;;;;;5050249;28;20057;-78
2023/07/21 05:29:14;;;;;;;0.20;0.20;;;22.40;67.30;;;;;;5057131;28;20098;-79
2023/07/21 05:31:39;;;;;;;0.25;0.25;;;22.40;67.20;;;;;;5073313;28;20045;-79
2023/07/21 05:34:07;;;;;;;0.20;0.20;;;22.40;67.30;;;;;;5055585;28;20052;-77
2023/07/21 05:36:34;;;;;;;0.40;0.40;;;22.40;67.20;;;;;;5057794;28;20044;-78
2023/07/21 05:39:00;;;;;;;0.40;0.40;;;22.40;67.20;;;;;;5070666;28;20421;-77
2023/07/21 05:41:26;;;;;;;0.30;0.30;;;22.40;67.20;;;;;;5069031;28;20032;-77
2023/07/21 05:43:51;;;;;;;0.20;0.20;;;22.40;67.20;;;;;;5059151;28;20107;-77
2023/07/21 05:46:17;;;;;;;0.40;0.40;;;22.50;67.20;;;;;;5046691;28;20063;-78
2023/07/21 05:48:42;;;;;;;0.30;0.30;;;22.50;67.10;;;;;;5035511;28;20056;-77
2023/07/21 05:51:12;;;;;;;0.40;0.40;;;22.40;67.10;;;;;;5055129;28;20051;-77
2023/07/21 05:53:37;;;;;;;0.30;0.30;;;22.40;67.20;;;;;;5058085;28;20044;-77
2023/07/21 05:56:06;;;;;;;0.30;0.30;;;22.40;67.10;;;;;;5037908;28;20063;-77
2023/07/21 05:58:32;;;;;;;0.35;0.35;;;22.40;67.00;;;;;;5052730;28;20048;-78
2023/07/21 06:00:57;;;;;;;0.20;0.20;;;22.40;67.10;;;;;;5038898;28;20044;-77
2023/07/21 06:03:24;;;;;;;0.47;0.47;;;22.40;67.10;;;;;;5055320;28;20494;-77
2023/07/21 06:05:52;;;;;;;0.38;0.38;;;22.40;67.10;;;;;;5056725;28;20060;-77
2023/07/21 06:08:17;;;;;;;0.55;0.32;;;22.50;67.10;;;;;;5053453;28;20051;-78
2023/07/21 06:10:43;;;;;;;0.30;0.30;;;22.40;66.90;;;;;;5059579;28;20060;-77
2023/07/21 06:13:08;;;;;;;0.30;0.20;;;22.40;66.90;;;;;;5054757;28;20056;-77
2023/07/21 06:15:36;;;;;;;0.30;0.30;;;22.40;67.00;;;;;;5055700;28;20060;-77
2023/07/21 06:18:03;;;;;;;0.28;0.28;;;22.40;66.90;;;;;;5052542;28;20044;-76
2023/07/21 06:20:28;;;;;;;0.30;0.30;;;22.50;66.90;;;;;;5049187;28;20090;-77
2023/07/21 06:22:54;;;;;;;0.20;0.20;;;22.40;66.90;;;;;;5054044;28;20048;-77
2023/07/21 06:25:19;;;;;;;0.40;0.30;;;22.40;66.80;;;;;;5039357;28;20599;-78
2023/07/21 06:27:47;;;;;;;0.40;0.40;;;22.40;66.80;;;;;;5050861;28;20041;-77
2023/07/21 06:30:13;;;;;;;0.40;0.40;;;22.40;66.90;;;;;;5038536;28;20037;-76
2023/07/21 06:32:40;;;;;;;0.63;0.63;;;22.40;66.90;;;;;;5028291;28;20418;-76
2023/07/21 06:35:07;;;;;;;1.63;1.53;;;22.30;66.30;;;;;;4681411;28;9999907;-77
2023/07/21 06:37:33;;;;;;;3.83;2.40;;;22.30;65.30;;;;;;5029317;28;20503;-76
2023/07/21 06:39:59;;;;;;;2.58;2.08;;;22.10;65.20;;;;;;5037155;28;20091;-76
2023/07/21 06:42:24;;;;;;;3.58;2.25;;;21.80;65.50;;;;;;5042677;28;20060;-77
2023/07/21 06:44:50;;;;;;;2.67;2.40;;;21.70;65.60;;;;;;5029502;28;20546;-76
2023/07/21 06:47:17;;;;;;;3.38;2.85;;;21.70;65.70;;;;;;5030565;28;20096;-77
2023/07/21 06:49:42;;;;;;;3.10;2.85;;;21.50;65.80;;;;;;5033695;28;20564;-77
2023/07/21 06:52:08;;;;;;;3.50;3.20;;;21.50;66.20;;;;;;5024648;28;20045;-75
2023/07/21 06:54:35;;;;;;;2.63;2.53;;;21.40;66.30;;;;;;5028541;28;20049;-76
2023/07/21 06:57:00;;;;;;;3.15;2.50;;;21.40;66.50;;;;;;5029220;28;20380;-75
2023/07/21 06:59:26;;;;;;;3.83;2.63;;;21.50;66.60;;;;;;5029008;28;20057;-77
2023/07/21 07:01:52;;;;;;;4.22;2.90;;;21.50;66.60;;;;;;5031002;28;20076;-75
2023/07/21 07:04:17;;;;;;;3.60;2.88;;;21.50;66.60;;;;;;5033248;28;20041;-76
2023/07/21 07:06:43;;;;;;;2.67;2.45;;;21.50;66.80;;;;;;5031390;28;21518;-76
2023/07/21 07:09:09;;;;;;;2.80;2.60;;;21.50;67.10;;;;;;5044652;28;20102;-75
2023/07/21 07:11:34;;;;;;;3.00;2.80;;;21.40;67.30;;;;;;5025951;28;20033;-77
2023/07/21 07:14:00;;;;;;;3.05;2.85;;;21.40;67.50;;;;;;5030276;28;20160;-76
2023/07/21 07:16:26;;;;;;;2.97;2.78;;;21.50;68.10;;;;;;5024523;28;20048;-76
2023/07/21 07:18:51;;;;;;;3.35;2.90;;;21.50;67.00;;;;;;5026833;28;20044;-76
2023/07/21 07:21:17;;;;;;;3.17;2.90;;;21.50;67.20;;;;;;5031613;28;20400;-74
2023/07/21 07:23:42;;;;;;;2.78;2.58;;;21.50;67.50;;;;;;5059199;28;20056;-74
2023/07/21 07:26:08;;;;;;;2.75;2.65;;;21.40;67.60;;;;;;5030279;28;20175;-75
2023/07/21 07:28:33;;;;;;;2.90;2.67;;;21.40;67.90;;;;;;5026455;28;20052;-75
2023/07/21 07:31:04;;;;;;;2.50;2.40;;;21.30;68.40;;;;;;5027023;28;20107;-75
2023/07/21 07:33:29;;;;;;;2.80;2.60;;;21.30;68.60;;;;;;5028694;28;20066;-75
2023/07/21 07:35:55;;;;;;;3.10;2.90;;;21.40;68.60;;;;;;5022835;28;20786;-75
2023/07/21 07:38:27;;;;;;;2.90;2.63;;;21.30;69.00;;;;;;5037443;28;20053;-76
2023/07/21 07:40:52;;;;;;;3.08;2.75;;;21.30;69.00;;;;;;5041292;28;20589;-76
2023/07/21 07:43:18;;;;;;;3.20;3.00;;;21.30;69.40;;;;;;5024909;28;20507;-76
2023/07/21 07:45:43;;;;;;;3.95;3.03;;;21.20;69.40;;;;;;5020698;28;20049;-76
2023/07/21 07:48:10;;;;;;;4.28;2.67;;;21.30;69.80;;;;;;5019186;28;20113;-76
2023/07/21 07:50:39;;;;;;;2.75;2.55;;;21.20;70.10;;;;;;5034027;28;20066;-76
2023/07/21 07:53:06;;;;;;;4.63;3.10;;;21.20;70.00;;;;;;5050391;28;20052;-76
2023/07/21 07:55:39;;;;;;;2.70;2.45;;;21.30;70.10;;;;;;5047632;28;20044;-77
2023/07/21 07:58:05;;;;;;;2.75;2.50;;;21.30;70.00;;;;;;5028087;28;20057;-76
2023/07/21 08:00:33;;;;;;;3.00;2.70;;;21.30;69.90;;;;;;5049595;28;21227;-76
2023/07/21 08:02:58;;;;;;;2.47;2.33;;;21.30;69.70;;;;;;5049385;28;20053;-76
2023/07/21 08:05:24;;;;;;;2.50;2.30;;;21.30;69.80;;;;;;5050194;28;20048;-75
2023/07/21 08:07:49;;;;;;;4.75;2.30;;;21.20;70.00;;;;;;5051617;28;20464;-74
2023/07/21 08:10:15;;;;;;;2.13;2.03;;;21.30;70.10;;;;;;5050676;28;20076;-76
2023/07/21 08:12:40;;;;;;;1.88;1.77;;;21.40;69.90;;;;;;5037351;28;20080;-76
2023/07/21 08:15:06;;;;;;;2.55;2.25;;;21.40;69.70;;;;;;5034352;28;20041;-76
2023/07/21 08:17:36;;;;;;;2.08;1.98;;;21.40;69.80;;;;;;5048513;28;20053;-75
2023/07/21 08:20:02;;;;;;;2.97;1.95;;;21.30;70.50;;;;;;5041797;28;20049;-75
2023/07/21 08:22:28;;;;;;;1.92;1.83;;;21.30;70.10;;;;;;5033939;28;20098;-75
2023/07/21 08:24:53;;;;;;;1.95;1.70;;;21.40;69.50;;;;;;5026974;28;20120;-76
2023/07/21 08:27:20;;;;;;;1.90;1.80;;;21.20;69.50;;;;;;5029788;28;20134;-75
2023/07/21 08:29:46;;;;;;;2.88;2.10;;;21.30;69.00;;;;;;5027796;28;20096;-75
2023/07/21 08:32:11;;;;;;;1.80;1.70;;;21.30;69.50;;;;;;5026931;28;20041;-75
2023/07/21 08:34:37;;;;;;;2.25;1.90;;;21.30;69.40;;;;;;5045355;28;20541;-76
2023/07/21 08:37:03;;;;;;;3.92;1.77;;;21.20;68.90;;;;;;5039085;28;20045;-76
2023/07/21 08:39:30;;;;;;;1.83;1.73;;;21.30;69.80;;;;;;5026737;28;20030;-76
2023/07/21 08:41:55;;;;;;;2.30;1.98;;;21.30;68.70;;;;;;5028138;28;20537;-75
2023/07/21 08:44:22;;;;;;;1.90;1.80;;;21.30;68.40;;;;;;5030483;28;20508;-75
2023/07/21 08:46:48;;;;;;;2.10;1.90;;;21.40;67.80;;;;;;5029454;28;20136;-75
2023/07/21 08:49:16;;;;;;;1.95;1.80;;;21.40;67.70;;;;;;5061651;28;20041;-74
2023/07/21 08:51:42;;;;;;;2.00;1.88;;;21.30;67.20;;;;;;5035721;28;20047;-75
2023/07/21 08:54:07;;;;;;;2.53;2.00;;;21.40;67.30;;;;;;5043169;28;20056;-74
2023/07/21 08:56:33;;;;;;;1.83;1.70;;;21.40;67.30;;;;;;5046386;28;20044;-75
2023/07/21 08:58:58;;;;;;;2.17;1.92;;;21.40;67.20;;;;;;5049088;28;20044;-76
2023/07/21 09:01:24;;;;;;;1.60;1.50;;;21.50;66.70;;;;;;5044679;28;20033;-75
2023/07/21 09:03:49;;;;;;;2.20;2.08;;;21.50;65.40;;;;;;5048681;28;20048;-75
2023/07/21 09:06:15;;;;;;;2.00;1.80;;;21.60;65.50;;;;;;5048265;28;20049;-75
2023/07/21 09:08:41;;;;;;;1.88;1.77;;;21.50;65.70;;;;;;5046694;28;20047;-75
2023/07/21 09:11:07;;;;;;;2.03;1.90;;;21.60;65.20;;;;;;5047009;28;20602;-75
2023/07/21 09:13:33;;;;;;;1.85;1.73;;;21.70;64.40;;;;;;5051421;28;20040;-75
2023/07/21 09:16:00;;;;;;;2.55;2.15;;;21.60;64.10;;;;;;5048506;28;20048;-75
2023/07/21 09:18:30;;;;;;;1.52;1.42;;;21.70;63.80;;;;;;5047692;28;20063;-75
2023/07/21 09:20:56;;;;;;;1.70;1.63;;;21.80;63.50;;;;;;5019025;28;20033;-75
2023/07/21 09:23:22;;;;;;;1.83;1.73;;;21.90;63.20;;;;;;5035974;28;20056;-76
2023/07/21 09:25:54;;;;;;;1.80;1.70;;;21.80;63.40;;;;;;5047402;28;20040;-75
2023/07/21 09:28:21;;;;;;;3.92;1.70;;;21.80;63.40;;;;;;5015923;28;20041;-75
2023/07/21 09:30:51;;;;;;;1.50;1.33;;;21.90;63.00;;;;;;5028075;28;20045;-75
2023/07/21 09:33:21;;;;;;;1.50;1.40;;;21.90;62.80;;;;;;5029716;28;20053;-76
2023/07/21 09:35:46;;;;;;;3.15;1.77;;;21.90;62.20;;;;;;5067276;28;20510;-75
2023/07/21 09:38:12;;;;;;;1.85;1.75;;;21.90;61.90;;;;;;5056053;28;20070;-75
2023/07/21 09:40:42;;;;;;;1.38;1.27;;;22.00;62.30;;;;;;5051426;28;20036;-75
2023/07/21 09:43:08;;;;;;;1.60;1.50;;;22.00;61.30;;;;;;5048350;28;20134;-75
2023/07/21 09:45:34;;;;;;;2.25;1.38;;;22.00;61.30;;;;;;5049689;28;20047;-75
2023/07/21 09:47:59;;;;;;;1.40;1.30;;;22.00;60.90;;;;;;5013423;28;20426;-75
2023/07/21 09:50:25;;;;;;;1.60;1.50;;;22.00;60.50;;;;;;5053903;28;20048;-75
2023/07/21 09:52:51;;;;;;;1.40;1.33;;;22.10;60.00;;;;;;5016693;28;20037;-75
2023/07/21 09:55:16;;;;;;;1.77;1.40;;;22.10;59.70;;;;;;5011697;28;20084;-75
2023/07/21 09:57:44;;;;;;;1.25;1.15;;;22.10;59.40;;;;;;5034080;28;20049;-76
2023/07/21 10:00:14;;;;;;;1.30;1.20;;;22.00;58.90;;;;;;5027744;28;20585;-75
2023/07/21 10:02:46;;;;;;;1.50;1.40;;;22.00;58.60;;;;;;5033105;28;20049;-75
2023/07/21 10:05:13;;;;;;;1.98;1.45;;;22.00;58.10;;;;;;5031443;28;20071;-76
2023/07/21 10:07:49;;;;;;;1.27;1.17;;;22.10;58.40;;;;;;5032044;28;20040;-76
2023/07/21 10:10:15;;;;;;;1.70;1.60;;;22.00;58.00;;;;;;5044828;28;20048;-76
2023/07/21 10:12:49;;;;;;;1.52;1.42;;;22.10;58.20;;;;;;5041048;28;20057;-76
2023/07/21 10:15:31;;;;;;;1.20;1.10;;;22.10;57.90;;;;;;5030519;28;20060;-75
2023/07/21 10:17:58;;;;;;;1.20;1.10;;;22.10;56.90;;;;;;5055509;28;20093;-75
2023/07/21 10:20:42;;;;;;;1.40;1.30;;;22.10;56.80;;;;;;5029247;28;20060;-75
2023/07/21 10:23:08;;;;;;;2.90;1.40;;;22.10;57.00;;;;;;5028306;28;20057;-77
2023/07/21 10:25:49;;;;;;;1.38;1.38;;;22.00;57.40;;;;;;5032016;28;20059;-77
2023/07/21 10:28:14;;;;;;;1.20;1.10;;;22.10;57.50;;;;;;5031297;28;20038;-76
2023/07/21 10:30:41;;;;;;;1.42;1.33;;;22.00;57.80;;;;;;5026543;28;20110;-77
2023/07/21 10:33:11;;;;;;;1.27;1.17;;;22.10;56.70;;;;;;5029471;28;20051;-75
2023/07/21 10:35:37;;;;;;;2.00;1.90;;;22.10;57.20;;;;;;5029300;28;20045;-76
2023/07/21 10:38:15;;;;;;;1.88;1.67;;;22.10;56.30;;;;;;5033567;28;20367;-76
2023/07/21 10:40:41;;;;;;;2.00;1.90;;;22.10;56.60;;;;;;5027002;28;20041;-76
2023/07/21 10:43:07;;;;;;;2.15;1.55;;;22.20;56.60;;;;;;5027963;28;20521;-75
2023/07/21 10:45:32;;;;;;;1.45;1.35;;;22.20;56.20;;;;;;5013560;28;20041;-75
2023/07/21 10:48:11;;;;;;;1.60;1.50;;;22.20;56.80;;;;;;5030509;28;20522;-75
2023/07/21 10:50:40;;;;;;;1.70;1.60;;;22.20;56.70;;;;;;5028115;28;20043;-76
2023/07/21 10:53:05;;;;;;;1.83;1.58;;;22.20;57.00;;;;;;5048743;28;20049;-74
2023/07/21 10:55:31;;;;;;;2.20;2.00;;;22.20;57.20;;;;;;5033148;28;20049;-75
2023/07/21 10:57:57;;;;;;;1.63;1.52;;;22.10;56.50;;;;;;5019149;28;20472;-75
2023/07/21 11:00:22;;;;;;;1.90;1.80;;;22.10;56.50;;;;;;5045376;28;20058;-75
2023/07/21 11:02:54;;;;;;;2.13;2.03;;;22.10;56.00;;;;;;5034313;28;20190;-75
2023/07/21 11:05:20;;;;;;;2.42;1.73;;;22.10;56.00;;;;;;5026976;28;20048;-75
2023/07/21 11:07:46;;;;;;;1.73;1.63;;;22.10;56.30;;;;;;5035914;28;20076;-75
2023/07/21 11:10:11;;;;;;;2.30;2.20;;;22.10;56.40;;;;;;5024624;28;20069;-75
2023/07/21 11:12:37;;;;;;;2.42;2.33;;;22.10;56.40;;;;;;5027121;28;20045;-75
2023/07/21 11:15:03;;;;;;;2.40;2.20;;;22.10;56.20;;;;;;5026799;28;20099;-75
2023/07/21 11:17:32;;;;;;;2.10;1.90;;;22.10;56.50;;;;;;5027328;28;20054;-75
2023/07/21 11:20:05;;;;;;;2.22;2.08;;;22.10;56.80;;;;;;5032404;28;20782;-75
2023/07/21 11:22:31;;;;;;;2.05;1.95;;;22.20;56.70;;;;;;5030495;28;20077;-75
2023/07/21 11:25:12;;;;;;;1.98;1.88;;;22.20;56.30;;;;;;5018142;28;20083;-75
2023/07/21 11:27:44;;;;;;;2.13;1.58;;;22.20;56.40;;;;;;5040986;28;20045;-76
2023/07/21 11:30:11;;;;;;;1.77;1.67;;;22.20;56.80;;;;;;5046134;28;20546;-75
2023/07/21 11:32:36;;;;;;;2.28;1.80;;;22.20;56.80;;;;;;5045754;28;20048;-77
2023/07/21 11:35:03;;;;;;;1.92;1.70;;;22.30;56.40;;;;;;5057991;28;20047;-75
2023/07/21 11:37:39;;;;;;;1.70;1.60;;;22.30;56.30;;;;;;5030119;28;20048;-76
2023/07/21 11:40:15;;;;;;;1.58;1.48;;;22.30;56.00;;;;;;5023666;28;20108;-76
2023/07/21 11:42:49;;;;;;;1.70;1.60;;;22.30;55.60;;;;;;5020814;28;20044;-76
2023/07/21 11:45:38;;;;;;;2.05;1.85;;;22.30;55.70;;;;;;5022987;28;20038;-75
2023/07/21 11:48:19;;;;;;;1.40;1.38;;;22.30;56.20;;;;;;5034394;28;20045;-75
2023/07/21 11:50:52;;;;;;;1.48;1.38;;;22.30;56.40;;;;;;5042275;28;20037;-76
2023/07/21 11:53:25;;;;;;;1.80;1.70;;;22.30;56.00;;;;;;5034157;28;20103;-75
2023/07/21 11:55:50;;;;;;;1.40;1.30;;;22.30;55.90;;;;;;5028095;28;20067;-76
2023/07/21 11:58:16;;;;;;;1.40;1.30;;;22.30;55.60;;;;;;5026073;28;20057;-75
2023/07/21 12:00:42;;;;;;;1.40;1.30;;;22.40;55.60;;;;;;5022557;28;20079;-75
2023/07/21 12:03:09;;;;;;;1.70;1.60;;;22.40;55.70;;;;;;5039945;28;20041;-75
2023/07/21 12:05:35;;;;;;;1.45;1.35;;;22.40;55.70;;;;;;5029504;28;20037;-77
2023/07/21 12:08:01;;;;;;;1.60;1.30;;;22.30;55.60;;;;;;5027333;28;20107;-77
2023/07/21 12:10:26;;;;;;;1.55;1.45;;;22.40;55.80;;;;;;5031256;28;20503;-75
2023/07/21 12:12:52;;;;;;;1.60;1.50;;;22.40;56.60;;;;;;5027100;28;20045;-77
2023/07/21 12:15:18;;;;;;;1.60;1.50;;;22.30;56.70;;;;;;5023720;28;20092;-74
2023/07/21 12:17:48;;;;;;;1.45;1.45;;;22.30;56.80;;;;;;5025902;28;20535;-76
2023/07/21 12:20:13;;;;;;;1.85;1.75;;;22.40;57.20;;;;;;5031184;28;20045;-76
2023/07/21 12:22:39;;;;;;;6.07;5.57;;;22.40;57.20;;;;;;5025926;28;20450;-76
2023/07/21 12:25:07;;;;;;;14.60;9.55;;;22.40;57.60;;;;;;5029130;28;20044;-75
2023/07/21 12:27:32;;;;;;;11.93;10.70;;;22.50;57.90;;;;;;5026185;28;20049;-76
2023/07/21 12:29:58;;;;;;;9.30;8.32;;;22.50;57.90;;;;;;5029143;28;20042;-75
2023/07/21 12:32:24;;;;;;;7.35;6.45;;;22.50;57.60;;;;;;5028401;28;20102;-75
2023/07/21 12:34:49;;;;;;;6.78;6.18;;;22.50;57.80;;;;;;5024620;28;20049;-75
2023/07/21 12:37:15;;;;;;;5.45;5.03;;;22.50;57.70;;;;;;5031654;28;20465;-76
2023/07/21 12:39:40;;;;;;;4.75;4.45;;;22.60;57.90;;;;;;5025324;28;20068;-77
2023/07/21 12:42:07;;;;;;;4.15;3.90;;;22.60;57.90;;;;;;5030728;28;20144;-77
2023/07/21 12:44:33;;;;;;;10.82;4.20;;;22.60;58.20;;;;;;5045181;28;20045;-77